Time;durP1;ratioP1;P1;durP2;ratioP2;P2;SDS_P1;SDS_P2;PMS_P1;PMS_P2;Temp;Humidity;BMP_temperature;BMP_pressure;BME280_temperature;BME280_humidity;BME280_pressure;Samples;Min_cycle;Max_cycle;Signal;HPM_P1;HPM_P2
2022/04/23 00:01:51;;;;;;;4.87;3.07;;;4.80;99.90;3.90;100046;;;;578657;244;24099;-77
2022/04/23 00:04:19;;;;;;;6.67;3.43;;;4.80;99.90;3.80;100044;;;;578810;244;24115;-77
2022/04/23 00:06:48;;;;;;;4.90;3.30;;;4.80;99.90;3.80;100047;;;;578756;244;24075;-76
2022/04/23 00:09:15;;;;;;;3.73;3.10;;;4.80;99.90;3.90;100035;;;;578826;244;24124;-80
2022/04/23 00:11:43;;;;;;;3.97;3.07;;;4.80;99.90;3.90;100031;;;;579162;244;24077;-78
2022/04/23 00:14:11;;;;;;;3.53;2.87;;;4.80;99.90;3.80;100033;;;;579458;244;24078;-77
2022/04/23 00:16:39;;;;;;;4.93;3.30;;;4.80;99.90;3.80;100023;;;;578764;244;25099;-77
2022/04/23 00:19:08;;;;;;;5.13;3.13;;;4.80;99.90;3.80;100035;;;;578699;244;24123;-76
2022/04/23 00:21:39;;;;;;;4.37;3.10;;;4.80;99.90;3.80;100020;;;;578570;244;25231;-77
2022/04/23 00:24:05;;;;;;;3.77;3.20;;;4.80;99.90;3.90;100027;;;;578144;244;24072;-77
2022/04/23 00:26:33;;;;;;;3.13;2.90;;;4.80;99.90;3.80;100019;;;;578577;244;24078;-77
2022/04/23 00:29:01;;;;;;;6.17;3.73;;;4.80;99.90;3.80;100022;;;;578685;244;24068;-80
2022/04/23 00:31:29;;;;;;;5.83;3.30;;;4.80;99.90;3.80;100021;;;;579014;244;24135;-81
2022/04/23 00:33:57;;;;;;;3.63;2.93;;;4.80;99.90;3.80;100026;;;;578791;244;24138;-77
2022/04/23 00:36:26;;;;;;;3.30;3.00;;;4.80;99.90;3.80;100025;;;;578427;244;24129;-77
2022/04/23 00:38:53;;;;;;;5.60;3.50;;;4.80;99.90;3.90;100006;;;;578266;244;24113;-78
2022/04/23 00:44:07;;;;;;;4.03;3.27;;;4.80;99.90;3.90;100024;;;;579144;244;24064;-81
2022/04/23 00:46:35;;;;;;;6.23;3.70;;;4.80;99.90;3.80;100013;;;;579279;244;24058;-81
2022/04/23 00:49:09;;;;;;;4.13;3.10;;;4.80;99.90;3.80;100010;;;;579046;244;24106;-80
2022/04/23 00:51:37;;;;;;;6.33;3.40;;;4.80;99.90;3.80;100008;;;;579363;244;24155;-77
2022/04/23 00:54:05;;;;;;;3.00;2.80;;;4.80;99.90;3.80;100007;;;;579295;242;24146;-78
2022/04/23 00:56:33;;;;;;;8.80;4.00;;;4.80;99.90;3.80;99993;;;;578844;244;24102;-81
2022/04/23 00:59:01;;;;;;;4.10;2.77;;;4.80;99.90;3.80;100003;;;;580459;244;24095;-80
2022/04/23 01:01:28;;;;;;;3.57;2.83;;;4.70;99.90;3.80;100003;;;;580151;244;24082;-78
2022/04/23 01:03:57;;;;;;;3.77;2.97;;;4.70;99.90;3.80;99996;;;;580122;244;24071;-80
2022/04/23 01:06:27;;;;;;;3.80;3.50;;;4.80;99.90;3.80;100005;;;;579579;244;24068;-82
2022/04/23 01:08:53;;;;;;;5.90;3.37;;;4.80;99.90;3.90;99995;;;;579157;244;24055;-78
2022/04/23 01:11:21;;;;;;;4.43;3.63;;;4.80;99.90;3.90;100000;;;;579617;244;24090;-81
2022/04/23 01:13:49;;;;;;;4.17;3.57;;;4.80;99.90;3.90;99995;;;;579301;244;24048;-78
2022/04/23 01:16:19;;;;;;;5.55;4.40;;;4.90;99.90;3.90;99996;;;;573964;244;35163;-77
2022/04/23 01:18:45;;;;;;;3.40;3.10;;;4.80;99.90;3.90;99996;;;;579297;244;24081;-78
2022/04/23 01:21:13;;;;;;;7.07;3.30;;;4.80;99.90;3.90;99989;;;;579225;244;24087;-77
2022/04/23 01:23:42;;;;;;;4.53;3.23;;;4.90;99.90;3.90;99991;;;;579402;244;24083;-81
2022/04/23 01:26:08;;;;;;;4.10;2.77;;;4.90;99.90;4.00;99988;;;;579235;244;24071;-77
2022/04/23 01:28:36;;;;;;;4.73;3.27;;;4.90;99.90;4.00;99986;;;;579483;244;24079;-76
2022/04/23 01:31:07;;;;;;;8.10;3.57;;;4.90;99.90;3.90;99992;;;;579302;244;24068;-77
2022/04/23 01:33:35;;;;;;;3.33;3.03;;;4.90;99.90;3.90;99982;;;;578818;244;24089;-77
2022/04/23 01:36:06;;;;;;;4.33;3.13;;;4.90;99.90;3.90;99984;;;;579176;244;24071;-76
2022/04/23 01:38:31;;;;;;;5.80;3.20;;;4.90;99.90;3.90;99979;;;;576972;244;24131;-78
2022/04/23 01:40:59;;;;;;;5.67;2.90;;;4.90;99.90;3.90;99982;;;;579202;244;24063;-77
2022/04/23 01:43:27;;;;;;;3.57;2.93;;;4.80;99.90;3.90;99983;;;;579161;244;24096;-78
2022/04/23 01:45:55;;;;;;;4.40;2.93;;;4.80;99.90;3.90;99982;;;;578902;244;24069;-79
2022/04/23 01:48:24;;;;;;;3.47;3.17;;;4.80;99.90;3.90;99981;;;;578893;244;24087;-77
2022/04/23 01:50:53;;;;;;;3.53;3.20;;;4.80;99.90;3.80;99971;;;;578999;244;24109;-78
2022/04/23 01:53:22;;;;;;;6.77;3.20;;;4.80;99.90;3.90;99974;;;;579008;244;24070;-77
2022/04/23 01:55:54;;;;;;;3.90;3.27;;;4.80;99.90;3.90;99969;;;;578653;244;24102;-76
2022/04/23 01:58:25;;;;;;;4.90;3.40;;;4.80;99.90;3.90;99970;;;;578753;244;24104;-77
2022/04/23 02:00:53;;;;;;;5.63;3.43;;;4.80;99.90;3.80;99971;;;;578742;244;24130;-77
2022/04/23 02:03:21;;;;;;;6.00;3.47;;;4.80;99.90;3.80;99966;;;;578950;244;24127;-75
2022/04/23 02:05:48;;;;;;;5.70;3.50;;;4.80;99.90;3.80;99968;;;;578920;242;24078;-77
2022/04/23 02:08:19;;;;;;;5.63;3.93;;;4.70;99.90;3.80;99964;;;;579650;244;24169;-77
2022/04/23 02:10:47;;;;;;;5.33;4.07;;;4.70;99.90;3.80;99960;;;;587918;244;25128;-77
2022/04/23 02:13:16;;;;;;;5.27;3.90;;;4.70;99.90;3.70;99965;;;;579039;244;24147;-81
2022/04/23 02:15:40;;;;;;;6.30;3.70;;;4.60;99.90;3.70;99959;;;;579107;244;24103;-77
2022/04/23 02:18:10;;;;;;;6.53;3.50;;;4.70;99.90;3.70;99959;;;;579184;244;24111;-76
2022/04/23 02:20:37;;;;;;;5.47;3.50;;;4.60;99.90;3.60;99946;;;;579029;244;24067;-77
2022/04/23 02:23:05;;;;;;;5.30;3.80;;;4.60;99.90;3.60;99942;;;;579203;244;24159;-77
2022/04/23 02:25:35;;;;;;;7.23;4.03;;;4.50;99.90;3.50;99945;;;;578622;244;24075;-77
2022/04/23 02:28:02;;;;;;;6.07;4.03;;;4.50;99.90;3.50;99941;;;;578696;244;24071;-77
2022/04/23 02:30:30;;;;;;;7.10;4.43;;;4.50;99.90;3.40;99934;;;;578612;244;24108;-76
2022/04/23 02:32:57;;;;;;;5.77;3.93;;;4.40;99.90;3.40;99940;;;;578706;244;24090;-77
2022/04/23 02:35:26;;;;;;;6.70;4.00;;;4.30;99.90;3.30;99939;;;;587439;244;24071;-77
2022/04/23 02:37:57;;;;;;;7.27;4.80;;;4.30;99.90;3.30;99941;;;;578330;244;24054;-77
2022/04/23 02:40:22;;;;;;;4.73;4.10;;;4.30;99.90;3.30;99932;;;;578217;244;24071;-78
2022/04/23 02:42:53;;;;;;;4.77;4.03;;;4.20;99.90;3.30;99931;;;;578167;244;24062;-77
2022/04/23 02:45:21;;;;;;;4.33;3.93;;;4.20;99.90;3.20;99938;;;;578282;244;24127;-77
2022/04/23 02:47:53;;;;;;;10.50;4.83;;;4.20;99.90;3.20;99937;;;;578217;244;24098;-78
2022/04/23 02:50:30;;;;;;;7.10;4.20;;;4.20;99.90;3.20;99933;;;;576534;244;24099;-83
2022/04/23 02:52:58;;;;;;;5.23;4.27;;;4.20;99.90;3.20;99937;;;;576773;244;24112;-78
2022/04/23 02:55:30;;;;;;;7.60;4.03;;;4.20;99.90;3.20;99930;;;;578889;244;24151;-76
2022/04/23 02:57:56;;;;;;;12.77;4.97;;;4.20;99.90;3.20;99921;;;;580773;244;24105;-77
2022/04/23 03:00:22;;;;;;;8.30;5.17;;;4.20;99.90;3.20;99911;;;;578370;244;24114;-76
2022/04/23 03:02:52;;;;;;;9.60;4.60;;;4.10;99.90;3.20;99913;;;;578566;244;24055;-78
2022/04/23 03:05:18;;;;;;;9.50;4.33;;;4.10;99.90;3.10;99918;;;;578477;244;24283;-77
2022/04/23 03:07:47;;;;;;;8.70;4.63;;;4.10;99.90;3.10;99912;;;;578617;244;24080;-77
2022/04/23 03:10:14;;;;;;;7.90;4.90;;;4.10;99.90;3.10;99908;;;;578064;244;24204;-77
2022/04/23 03:12:42;;;;;;;7.07;4.60;;;4.10;99.90;3.10;99910;;;;576518;244;24083;-77
2022/04/23 03:15:10;;;;;;;6.60;4.43;;;4.10;99.90;3.20;99908;;;;578321;244;24053;-77
2022/04/23 03:17:39;;;;;;;5.97;4.07;;;4.10;99.90;3.20;99914;;;;578426;243;24105;-77
2022/04/23 03:20:09;;;;;;;9.23;5.00;;;4.10;99.90;3.10;99914;;;;579687;244;24091;-77
2022/04/23 03:22:36;;;;;;;9.37;4.10;;;4.10;99.90;3.10;99914;;;;576991;244;24111;-76
2022/04/23 03:25:06;;;;;;;7.30;4.37;;;4.10;99.90;3.10;99921;;;;579101;244;24062;-76
2022/04/23 03:27:36;;;;;;;7.43;4.47;;;4.10;99.90;3.10;99908;;;;578931;244;24102;-76
2022/04/23 03:30:05;;;;;;;5.63;4.67;;;4.10;99.90;3.10;99906;;;;578360;244;24056;-77
2022/04/23 03:32:29;;;;;;;8.07;4.63;;;4.00;99.90;3.10;99913;;;;578285;244;24072;-76
2022/04/23 03:34:57;;;;;;;8.37;4.67;;;4.00;99.90;3.10;99905;;;;578701;244;24116;-76
2022/04/23 03:37:27;;;;;;;7.50;4.87;;;4.00;99.90;3.10;99911;;;;578622;244;24055;-77
2022/04/23 03:39:52;;;;;;;7.70;4.73;;;4.10;99.90;3.10;99902;;;;578407;244;24161;-77
2022/04/23 03:42:20;;;;;;;6.33;4.77;;;4.10;99.90;3.10;99908;;;;578632;244;24139;-76
2022/04/23 03:44:48;;;;;;;8.30;5.03;;;4.10;99.90;3.20;99903;;;;579056;244;24120;-80
2022/04/23 03:47:16;;;;;;;6.10;4.43;;;4.10;99.90;3.20;99916;;;;579219;244;24116;-79
2022/04/23 03:49:46;;;;;;;10.20;4.73;;;4.10;99.90;3.30;99914;;;;579308;244;24119;-79
2022/04/23 03:52:13;;;;;;;9.27;4.90;;;4.20;99.90;3.30;99908;;;;579553;244;24084;-80
2022/04/23 03:54:41;;;;;;;6.60;4.73;;;4.20;99.90;3.30;99914;;;;579428;244;24069;-78
2022/04/23 03:57:09;;;;;;;6.47;5.27;;;4.20;99.90;3.40;99911;;;;578974;244;24087;-78
2022/04/23 03:59:37;;;;;;;7.03;5.10;;;4.30;99.90;3.40;99911;;;;578849;244;26232;-76
2022/04/23 04:02:07;;;;;;;6.93;5.30;;;4.30;99.90;3.50;99908;;;;579338;244;24104;-77
2022/04/23 04:04:35;;;;;;;5.87;4.63;;;4.40;99.90;3.50;99907;;;;579247;244;24121;-77
2022/04/23 04:07:07;;;;;;;8.03;4.97;;;4.40;99.90;3.60;99906;;;;578744;244;24051;-78
2022/04/23 04:09:36;;;;;;;10.93;4.80;;;4.60;99.90;3.70;99902;;;;578430;244;24081;-77
2022/04/23 04:12:04;;;;;;;5.30;4.80;;;4.60;99.90;3.70;99900;;;;583442;243;24133;-78
2022/04/23 04:14:32;;;;;;;9.43;4.63;;;4.70;99.90;3.80;99891;;;;571344;247;24077;-77
2022/04/23 04:17:00;;;;;;;5.23;4.47;;;4.70;99.90;3.90;99903;;;;584202;246;24159;-76
2022/04/23 04:19:31;;;;;;;5.00;4.13;;;4.80;99.90;4.00;99906;;;;574585;246;24090;-80
2022/04/23 04:21:56;;;;;;;8.93;4.37;;;4.90;99.90;4.20;99893;;;;574170;246;24110;-77
2022/04/23 04:24:24;;;;;;;7.47;6.40;;;5.00;99.90;4.30;99904;;;;569537;246;35282;-77
2022/04/23 04:26:52;;;;;;;7.97;5.90;;;5.20;99.90;4.50;99909;;;;574627;246;24150;-78
2022/04/23 04:29:23;;;;;;;9.93;5.90;;;5.30;99.90;4.70;99900;;;;575307;245;24123;-79
2022/04/23 04:31:51;;;;;;;5.80;4.17;;;5.50;99.90;5.60;99898;;;;575777;245;24124;-77
2022/04/23 04:34:33;;;;;;;5.10;4.60;;;6.30;99.90;7.20;99906;;;;575571;245;24093;-79
2022/04/23 04:37:09;;;;;;;4.93;4.43;;;7.80;99.90;9.00;99909;;;;575723;245;24105;-77
2022/04/23 04:39:37;;;;;;;5.80;4.00;;;9.60;99.90;10.70;99920;;;;575927;245;24175;-78
2022/04/23 04:42:08;;;;;;;3.90;3.60;;;11.30;99.90;12.10;99918;;;;575087;245;24131;-78
2022/04/23 04:44:33;;;;;;;3.97;3.63;;;12.80;99.90;13.30;99913;;;;575200;245;24090;-78
2022/04/23 04:47:01;;;;;;;3.83;3.40;;;14.00;99.90;14.30;99913;;;;579235;245;24128;-78
2022/04/23 04:49:29;;;;;;;4.20;3.27;;;15.10;99.90;15.30;99917;;;;574614;246;24086;-77
2022/04/23 04:51:57;;;;;;;8.10;3.43;;;16.10;99.90;16.30;99907;;;;574996;246;24110;-78
2022/04/23 04:54:25;;;;;;;8.60;3.67;;;17.10;99.90;17.20;99917;;;;574620;246;24077;-78
2022/04/23 04:56:53;;;;;;;5.10;3.50;;;18.10;99.90;18.10;99910;;;;574726;246;24125;-78
2022/04/23 04:59:23;;;;;;;6.73;3.57;;;19.00;99.90;19.10;99912;;;;580686;246;24088;-78
2022/04/23 05:01:55;;;;;;;4.37;3.97;;;20.80;89.20;19.90;99909;;;;574535;246;24100;-78
2022/04/23 05:04:20;;;;;;;5.33;3.17;;;20.70;89.10;20.70;99914;;;;574124;246;24164;-78
2022/04/23 05:06:48;;;;;;;3.97;3.67;;;21.60;81.50;21.60;99915;;;;574210;246;24122;-79
2022/04/23 05:09:18;;;;;;;4.73;3.70;;;22.40;73.00;22.40;99914;;;;574339;246;24074;-78
2022/04/23 05:11:43;;;;;;;6.00;3.10;;;23.20;68.40;23.00;99916;;;;573983;246;24115;-80
2022/04/23 05:14:11;;;;;;;3.47;3.17;;;23.90;64.00;23.70;99912;;;;580463;246;23116;-78
2022/04/23 05:16:39;;;;;;;5.73;3.10;;;24.60;60.00;24.30;99912;;;;574214;246;24090;-77
2022/04/23 05:19:07;;;;;;;4.40;2.73;;;25.10;57.40;24.80;99908;;;;574068;246;23093;-78
2022/04/23 05:21:35;;;;;;;3.67;3.37;;;25.70;55.60;25.20;99910;;;;574200;246;23098;-77
2022/04/23 05:24:06;;;;;;;5.50;3.53;;;26.10;53.00;25.80;99912;;;;574306;246;24107;-78
2022/04/23 05:26:31;;;;;;;3.90;3.47;;;26.60;52.00;26.10;99911;;;;580535;246;23120;-80
2022/04/23 05:28:59;;;;;;;3.23;2.93;;;26.90;50.20;26.70;99910;;;;574576;246;23220;-79
2022/04/23 05:31:27;;;;;;;4.47;3.33;;;27.40;48.90;27.30;99923;;;;574487;246;23116;-81
2022/04/23 05:33:55;;;;;;;6.78;3.47;;;28.00;47.20;27.60;99924;;;;569707;246;35359;-81
2022/04/23 05:36:23;;;;;;;6.93;2.97;;;28.40;45.50;27.60;99922;;;;574459;246;23123;-79
2022/04/23 05:38:51;;;;;;;8.50;3.28;;;28.60;44.60;27.70;99926;;;;574704;246;23102;-82
2022/04/23 05:41:19;;;;;;;4.50;2.93;;;28.50;44.50;28.00;99924;;;;575165;245;23091;-83
2022/04/23 05:43:47;;;;;;;3.47;3.17;;;28.70;44.80;28.50;99920;;;;576083;245;23145;-82
2022/04/23 05:46:19;;;;;;;6.97;4.18;;;29.10;44.00;29.00;99923;;;;575379;245;23088;-80
2022/04/23 05:48:46;;;;;;;3.28;2.97;;;29.60;43.60;29.20;99927;;;;575098;245;23119;-81
2022/04/23 05:51:11;;;;;;;3.95;3.17;;;29.80;42.50;29.40;99928;;;;574604;245;23181;-79
2022/04/23 05:53:39;;;;;;;3.87;3.25;;;30.10;42.40;29.80;99934;;;;575141;245;23142;-79
2022/04/23 05:56:07;;;;;;;6.78;4.10;;;30.40;41.70;29.80;99926;;;;575011;245;23085;-79
2022/04/23 05:58:35;;;;;;;3.58;3.28;;;30.50;41.20;30.10;99935;;;;575095;245;23094;-81
2022/04/23 06:01:05;;;;;;;5.87;4.03;;;30.70;40.90;30.50;99944;;;;574788;246;23118;-82
2022/04/23 06:03:30;;;;;;;3.10;2.80;;;31.00;40.60;31.10;99940;;;;583349;244;23166;-79
2022/04/23 06:05:59;;;;;;;3.30;3.10;;;31.90;39.10;31.40;99942;;;;575584;246;23105;-81
2022/04/23 06:08:28;;;;;;;3.85;2.67;;;31.90;39.10;31.40;99938;;;;576020;246;23086;-81
2022/04/23 06:10:55;;;;;;;3.42;3.22;;;32.00;38.30;31.30;99941;;;;575987;246;24141;-83
2022/04/23 06:13:23;;;;;;;4.50;3.42;;;32.00;38.70;31.90;99937;;;;576191;246;23039;-83
2022/04/23 06:15:51;;;;;;;5.35;3.15;;;32.40;38.40;32.60;99942;;;;575856;246;24125;-80
2022/04/23 06:18:19;;;;;;;3.17;2.90;;;32.90;37.70;33.20;99940;;;;574842;246;23108;-81
2022/04/23 06:20:47;;;;;;;4.85;3.37;;;33.60;36.90;33.70;99943;;;;574479;246;24118;-82
2022/04/23 06:23:14;;;;;;;3.72;3.15;;;34.10;36.20;33.70;99940;;;;574349;246;23171;-79
2022/04/23 06:25:43;;;;;;;6.47;3.62;;;34.40;35.40;33.70;99944;;;;574476;246;23107;-82
2022/04/23 06:28:12;;;;;;;8.10;3.42;;;34.20;35.40;33.50;99949;;;;574390;246;23157;-80
2022/04/23 06:30:40;;;;;;;3.67;3.10;;;34.20;35.30;33.70;99953;;;;574175;246;24111;-82
2022/04/23 06:33:08;;;;;;;3.20;3.08;;;34.20;34.90;34.00;99953;;;;574290;246;23103;-79
2022/04/23 06:35:36;;;;;;;4.55;3.28;;;34.50;34.50;33.40;99949;;;;574036;246;23088;-80
2022/04/23 06:38:03;;;;;;;3.37;3.05;;;34.10;34.40;33.30;99941;;;;574216;246;23087;-81
2022/04/23 06:40:31;;;;;;;3.53;3.15;;;33.90;34.60;33.60;99944;;;;574110;246;23112;-79
2022/04/23 06:42:59;;;;;;;4.60;3.00;;;34.10;34.90;34.30;99944;;;;574547;246;24143;-80
2022/04/23 06:45:27;;;;;;;5.43;2.65;;;34.60;34.20;35.10;99939;;;;574249;246;23108;-80
2022/04/23 06:47:59;;;;;;;3.47;3.28;;;35.30;33.90;35.90;99939;;;;580320;246;23189;-80
2022/04/23 06:50:26;;;;;;;4.43;3.22;;;36.10;33.40;36.10;99944;;;;574372;246;23197;-81
2022/04/23 06:52:54;;;;;;;5.47;3.58;;;36.40;32.70;36.20;99942;;;;575203;245;23089;-85
2022/04/23 06:55:22;;;;;;;3.72;3.05;;;36.70;32.30;36.00;99941;;;;576451;245;23191;-81
2022/04/23 06:57:50;;;;;;;3.25;3.05;;;36.60;32.00;36.40;99944;;;;576285;245;23083;-81
2022/04/23 07:00:18;;;;;;;4.15;2.83;;;36.80;32.10;36.60;99948;;;;575963;245;23178;-81
2022/04/23 07:02:46;;;;;;;3.50;3.30;;;36.90;31.80;36.70;99946;;;;575213;245;23086;-77
2022/04/23 07:05:14;;;;;;;3.33;3.12;;;37.10;31.20;36.60;99953;;;;575257;245;23098;-79
2022/04/23 07:07:42;;;;;;;6.12;3.35;;;37.00;30.90;36.50;99950;;;;575133;245;23092;-79
2022/04/23 07:10:10;;;;;;;4.35;3.37;;;37.00;31.10;36.60;99948;;;;575191;245;23092;-79
2022/04/23 07:12:38;;;;;;;6.30;3.20;;;37.00;31.00;36.70;99947;;;;574999;246;23127;-79
2022/04/23 07:15:06;;;;;;;5.62;3.28;;;37.10;30.70;36.10;99952;;;;574889;246;23085;-80
2022/04/23 07:17:35;;;;;;;4.03;3.47;;;36.70;31.00;36.40;99943;;;;583323;246;23145;-79
2022/04/23 07:20:03;;;;;;;3.83;3.53;;;36.70;31.10;36.10;99950;;;;574769;246;23099;-80
2022/04/23 07:22:31;;;;;;;4.12;3.70;;;36.50;31.30;36.30;99957;;;;583551;246;23149;-81
2022/04/23 07:24:59;;;;;;;4.90;3.47;;;36.60;30.50;36.00;99955;;;;574768;246;23106;-82
2022/04/23 07:27:27;;;;;;;6.53;3.37;;;36.50;30.60;35.80;99956;;;;574801;246;23091;-84
2022/04/23 07:29:55;;;;;;;3.53;3.10;;;36.30;30.70;35.10;99951;;;;582804;246;23164;-83
2022/04/23 07:32:24;;;;;;;4.18;3.72;;;35.80;31.40;35.10;99951;;;;574373;246;23120;-83
2022/04/23 07:37:36;;;;;;;6.55;3.30;;;35.70;31.20;35.80;99956;;;;574382;246;23130;-80
2022/04/23 07:40:14;;;;;;;5.25;3.08;;;36.10;30.90;35.80;99954;;;;574056;246;23137;-79
2022/04/23 07:42:34;;;;;;;6.32;3.12;;;36.20;30.60;36.40;99942;;;;573486;246;23154;-77
2022/04/23 07:45:02;;;;;;;6.78;3.42;;;36.50;30.70;36.90;99946;;;;573956;246;23144;-78
2022/04/23 07:47:30;;;;;;;4.40;2.87;;;37.00;30.70;37.60;99945;;;;574305;246;23125;-80
2022/04/23 07:49:59;;;;;;;6.28;3.17;;;37.90;30.00;37.40;99955;;;;574210;246;23117;-80
2022/04/23 07:52:26;;;;;;;6.55;3.42;;;37.90;29.50;37.60;99948;;;;569396;246;35343;-80
2022/04/23 07:54:54;;;;;;;8.75;4.05;;;38.00;29.90;38.00;99949;;;;574589;246;24154;-81
2022/04/23 07:57:26;;;;;;;5.72;3.20;;;38.30;29.60;38.20;99951;;;;574494;246;24151;-81
2022/04/23 07:59:51;;;;;;;6.35;3.37;;;38.60;29.40;38.10;99958;;;;574528;246;24173;-80
2022/04/23 08:02:19;;;;;;;8.18;3.62;;;38.50;29.30;37.60;99951;;;;574615;246;24135;-80
2022/04/23 08:04:47;;;;;;;6.15;3.15;;;38.30;29.30;37.10;99950;;;;575398;245;23101;-80
2022/04/23 08:07:15;;;;;;;3.62;3.33;;;37.60;29.50;36.90;99951;;;;575654;245;23126;-80
2022/04/23 08:09:44;;;;;;;3.42;3.12;;;37.30;29.70;36.50;99954;;;;575463;245;23094;-78
2022/04/23 08:12:12;;;;;;;5.62;3.85;;;37.20;29.70;36.60;99960;;;;570337;245;35541;-79
2022/04/23 08:14:40;;;;;;;4.20;3.90;;;37.20;29.80;36.60;99962;;;;575205;245;23092;-81
2022/04/23 08:17:08;;;;;;;4.12;3.45;;;37.20;30.10;36.30;99957;;;;575147;245;23137;-80
2022/04/23 08:19:38;;;;;;;3.75;3.45;;;37.00;29.80;36.00;99953;;;;574765;245;23139;-78
2022/04/23 08:22:03;;;;;;;4.43;3.90;;;36.70;30.10;36.00;99946;;;;574445;246;23118;-79
2022/04/23 08:24:32;;;;;;;7.85;4.25;;;36.80;30.00;36.30;99959;;;;583243;246;23122;-79
2022/04/23 08:27:00;;;;;;;3.75;3.45;;;36.70;29.90;35.80;99959;;;;574176;246;23103;-78
2022/04/23 08:32:14;;;;;;;5.05;3.80;;;36.40;30.60;34.70;99943;;;;574921;246;23104;-78
2022/04/23 08:34:42;;;;;;;6.32;4.00;;;35.70;31.10;34.70;99945;;;;580500;246;23103;-78
2022/04/23 08:37:12;;;;;;;4.72;4.15;;;35.60;32.00;35.10;99939;;;;574295;246;24145;-78
2022/04/23 08:39:39;;;;;;;5.43;3.92;;;35.60;32.00;35.20;99944;;;;574434;246;24153;-79
2022/04/23 08:42:09;;;;;;;4.32;3.97;;;35.70;32.00;36.00;99951;;;;574074;246;23100;-79
2022/04/23 08:44:34;;;;;;;5.00;4.10;;;36.30;32.00;36.30;99946;;;;573978;246;24130;-79
2022/04/23 08:47:02;;;;;;;5.10;4.15;;;36.70;31.60;36.50;99951;;;;574038;246;23144;-80
2022/04/23 08:49:33;;;;;;;4.12;3.80;;;37.00;31.10;36.20;99953;;;;574305;246;23148;-82
2022/04/23 08:52:00;;;;;;;4.85;4.37;;;36.50;31.60;35.50;99946;;;;574728;246;23103;-81
2022/04/23 08:54:31;;;;;;;4.22;3.90;;;36.50;31.50;35.10;99945;;;;573814;246;23432;-83
2022/04/23 08:56:56;;;;;;;6.30;4.18;;;36.10;31.30;35.20;99944;;;;574549;246;23108;-80
2022/04/23 08:59:24;;;;;;;5.53;4.40;;;36.10;31.90;35.20;99939;;;;575174;246;25273;-79
2022/04/23 09:01:52;;;;;;;8.55;3.92;;;36.10;31.90;35.30;99945;;;;575341;246;23099;-83
2022/04/23 09:04:20;;;;;;;8.48;3.85;;;36.10;32.30;35.50;99938;;;;575322;246;23146;-79
2022/04/23 09:06:48;;;;;;;4.95;3.33;;;36.30;31.60;35.40;99943;;;;575270;246;23109;-80
2022/04/23 09:09:16;;;;;;;4.65;3.30;;;36.30;31.20;35.60;99950;;;;583970;246;23091;-79
2022/04/23 09:11:44;;;;;;;6.85;3.37;;;36.50;31.20;35.80;99930;;;;574895;246;23128;-84
2022/04/23 09:14:24;;;;;;;3.90;3.20;;;37.00;30.80;36.10;99926;;;;575409;246;23133;-82
2022/04/23 09:25:35;;;;;;;4.50;3.00;;;36.20;31.40;34.80;99926;;;;575405;245;23100;-78
2022/04/23 09:28:26;;;;;;;5.97;2.80;;;36.10;31.40;35.20;99926;;;;575369;245;23110;-78
2022/04/23 09:30:54;;;;;;;4.95;2.97;;;36.70;31.80;35.80;99934;;;;575425;245;23121;-80
2022/04/23 09:33:27;;;;;;;2.42;2.25;;;36.70;31.80;36.40;99929;;;;584474;245;23174;-81
2022/04/23 09:35:59;;;;;;;2.87;2.17;;;37.30;31.20;36.40;99927;;;;574600;246;24159;-79
2022/04/23 09:38:29;;;;;;;4.20;2.22;;;37.60;30.70;35.80;99939;;;;576270;246;23125;-77
2022/04/23 09:40:55;;;;;;;3.22;1.92;;;37.30;30.90;35.80;99931;;;;575934;246;23115;-78
2022/04/23 09:43:35;;;;;;;6.05;1.98;;;37.10;30.80;36.10;99919;;;;575507;246;23122;-78
2022/04/23 09:45:59;;;;;;;4.28;2.15;;;37.30;31.00;35.90;99923;;;;575199;246;23114;-78
2022/04/23 09:48:27;;;;;;;4.57;2.40;;;37.40;30.70;35.70;99921;;;;575481;246;23095;-78
2022/04/23 09:50:56;;;;;;;2.40;2.10;;;37.20;31.00;35.70;99923;;;;574523;246;23129;-78
2022/04/23 09:53:27;;;;;;;3.62;2.00;;;37.20;31.10;35.70;99920;;;;574168;246;23149;-78
2022/04/23 09:55:51;;;;;;;2.17;2.08;;;37.20;31.00;35.10;99920;;;;580354;246;24172;-78
2022/04/23 09:58:19;;;;;;;2.40;2.10;;;36.80;31.20;34.80;99917;;;;574295;246;24176;-77
2022/04/23 10:00:51;;;;;;;6.60;2.00;;;36.50;31.70;35.00;99919;;;;574492;246;23102;-78
2022/04/23 10:03:16;;;;;;;12.55;2.47;;;36.50;31.70;34.10;99914;;;;574924;246;23166;-78
2022/04/23 10:05:47;;;;;;;2.42;1.92;;;36.00;31.70;33.20;99911;;;;575537;246;23139;-78
2022/04/23 10:08:17;;;;;;;9.60;2.10;;;35.20;32.30;32.40;99914;;;;575452;246;23137;-79
2022/04/23 10:10:54;;;;;;;2.60;1.90;;;34.50;33.00;31.10;99920;;;;575065;246;24132;-79
2022/04/23 10:13:28;;;;;;;5.18;2.08;;;33.50;33.60;29.40;99915;;;;579627;246;23207;-83
2022/04/23 10:15:56;;;;;;;7.20;1.87;;;32.10;34.80;27.60;99908;;;;583426;244;23099;-80
2022/04/23 10:18:23;;;;;;;4.40;1.63;;;30.40;36.10;26.40;99918;;;;574745;246;24103;-80
2022/04/23 10:20:55;;;;;;;5.00;1.60;;;28.90;38.10;25.00;99911;;;;580053;246;23107;-83
2022/04/23 10:23:31;;;;;;;4.27;2.03;;;27.60;39.90;23.40;99910;;;;575604;246;24076;-77
2022/04/23 10:26:17;;;;;;;1.73;1.60;;;26.00;42.00;22.30;99899;;;;574467;246;24083;-78
2022/04/23 10:28:44;;;;;;;2.27;2.00;;;24.40;44.50;21.50;99910;;;;575921;245;24172;-81
2022/04/23 10:31:15;;;;;;;4.93;2.37;;;23.30;46.40;20.60;99902;;;;582502;245;24137;-78
2022/04/23 10:33:40;;;;;;;3.30;1.70;;;22.30;47.90;19.80;99889;;;;581270;245;24095;-79
2022/04/23 10:36:11;;;;;;;1.90;1.80;;;21.40;49.80;19.30;99900;;;;575063;245;24135;-79
2022/04/23 10:38:42;;;;;;;9.30;2.03;;;20.60;51.20;18.90;99890;;;;574856;245;24084;-78
2022/04/23 10:41:07;;;;;;;2.03;1.83;;;20.10;52.70;18.30;99903;;;;574709;245;24090;-79
2022/04/23 10:43:38;;;;;;;2.67;1.67;;;19.40;53.90;17.60;99901;;;;585122;245;24127;-80
2022/04/23 10:46:02;;;;;;;3.40;1.70;;;18.70;55.30;17.00;99893;;;;580210;246;24120;-83
2022/04/23 10:48:33;;;;;;;6.10;1.83;;;18.00;56.90;16.40;99894;;;;575029;246;24166;-82
2022/04/23 10:51:20;;;;;;;7.97;2.57;;;16.80;59.90;16.10;99891;;;;574736;246;24115;-83
2022/04/23 10:53:46;;;;;;;2.40;1.60;;;16.80;59.90;15.70;99886;;;;575288;246;24116;-84
2022/04/23 10:56:16;;;;;;;2.73;1.40;;;16.40;61.90;15.30;99889;;;;575196;246;24092;-83
2022/04/23 10:58:41;;;;;;;4.07;2.13;;;16.00;62.30;15.00;99889;;;;574637;246;24093;-84
2022/04/23 11:01:29;;;;;;;4.37;1.47;;;15.70;63.50;14.80;99879;;;;580278;246;24143;-78
2022/04/23 11:04:07;;;;;;;4.17;1.57;;;15.40;64.40;14.60;99887;;;;574914;246;24128;-83
2022/04/23 11:12:39;;;;;;;3.10;1.70;;;14.90;67.50;14.20;99880;;;;575409;246;24084;-85
2022/04/23 11:15:19;;;;;;;1.27;1.20;;;14.80;68.60;14.00;99883;;;;574880;246;24083;-83
2022/04/23 11:17:49;;;;;;;1.60;1.50;;;14.60;68.00;13.80;99878;;;;574655;246;24109;-82
2022/04/23 11:20:26;;;;;;;1.70;1.60;;;14.40;69.10;13.60;99881;;;;574653;246;24074;-80
2022/04/23 11:22:54;;;;;;;3.37;1.63;;;14.20;69.30;13.50;99869;;;;574679;246;24121;-81
2022/04/23 11:25:22;;;;;;;4.80;2.23;;;14.20;70.10;13.40;99878;;;;574753;246;24100;-86
2022/04/23 11:27:50;;;;;;;2.10;1.83;;;14.00;70.20;13.40;99871;;;;583185;246;24093;-84
2022/04/23 11:30:18;;;;;;;1.80;1.70;;;14.00;70.80;13.40;99876;;;;575164;246;24172;-85
2022/04/23 11:32:46;;;;;;;2.37;2.17;;;14.00;70.90;13.30;99876;;;;573421;246;24129;-86
2022/04/23 11:35:15;;;;;;;2.10;1.70;;;13.90;71.20;13.30;99874;;;;575122;246;25165;-88
2022/04/23 11:37:43;;;;;;;3.27;1.90;;;13.90;71.10;13.10;99893;;;;575094;246;24141;-87
2022/04/23 11:40:16;;;;;;;4.33;2.07;;;13.70;71.10;12.90;99901;;;;576596;245;24155;-84
2022/04/23 11:42:47;;;;;;;1.73;1.63;;;13.40;71.90;12.70;99887;;;;584507;245;24120;-86
2022/04/23 11:45:12;;;;;;;2.57;1.87;;;13.30;72.90;12.50;99878;;;;581696;245;24080;-81
2022/04/23 11:47:40;;;;;;;3.97;2.23;;;13.20;72.70;12.50;99885;;;;575650;245;24075;-81
2022/04/23 11:50:16;;;;;;;2.83;1.93;;;13.20;72.60;12.30;99877;;;;575135;245;24157;-87
2022/04/23 11:52:47;;;;;;;2.73;2.27;;;13.00;72.50;12.20;99875;;;;575017;245;24108;-84